DLA9XY LJLJ-EDDM
Flight info
| Callsign | DLA9XY |
|---|---|
| Flight time | 0h 41m |
| Altitude | 26000 |
| Route | GIMIX1Z GIMIX DCT RASTA DCT REDBU Q112 NAPSA NAPSA1B |
| Aircraft | E195/M-SDE3GILORVW/S |
Departure
| Time | 2026-05-07 18:51 |
|---|---|
| Airport | Ljubljana Jože Pučnik Airport (LJLJ) |
Arrival
| Time | 2026-05-07 19:32 |
|---|---|
| Airport | Munich Airport (EDDM) |
| Time | Latitude | Longitude | Altitude | Speed | Heading |
|---|---|---|---|---|---|
| 2026-05-07 18:24 | 46.23028 | 14.45421 | 1257 ft | 0 kts | 36° |
| 2026-05-07 18:41 | 46.23013 | 14.45404 | 1261 ft | 4 kts | 43° |
| 2026-05-07 18:41 | 46.22995 | 14.45376 | 1266 ft | 4 kts | 63° |
| 2026-05-07 18:41 | 46.22989 | 14.45342 | 1268 ft | 4 kts | 115° |
| 2026-05-07 18:42 | 46.22992 | 14.45335 | 1261 ft | 3 kts | 127° |
| 2026-05-07 18:44 | 46.22991 | 14.45336 | 1257 ft | 1 kts | 127° |
| 2026-05-07 18:44 | 46.22981 | 14.45355 | 1257 ft | 3 kts | 127° |
| 2026-05-07 18:45 | 46.22960 | 14.45392 | 1263 ft | 6 kts | 139° |
| 2026-05-07 18:45 | 46.22921 | 14.45390 | 1268 ft | 7 kts | 198° |
| 2026-05-07 18:45 | 46.22879 | 14.45353 | 1263 ft | 8 kts | 214° |
| 2026-05-07 18:45 | 46.22825 | 14.45343 | 1265 ft | 9 kts | 152° |
| 2026-05-07 18:46 | 46.22779 | 14.45421 | 1260 ft | 11 kts | 127° |
| 2026-05-07 18:46 | 46.22728 | 14.45521 | 1257 ft | 14 kts | 126° |
| 2026-05-07 18:46 | 46.22662 | 14.45650 | 1255 ft | 18 kts | 126° |
| 2026-05-07 18:46 | 46.22587 | 14.45801 | 1249 ft | 20 kts | 127° |
| 2026-05-07 18:47 | 46.22498 | 14.45973 | 1240 ft | 22 kts | 126° |
| 2026-05-07 18:47 | 46.22405 | 14.46158 | 1244 ft | 24 kts | 128° |
| 2026-05-07 18:47 | 46.22301 | 14.46358 | 1231 ft | 26 kts | 126° |
| 2026-05-07 18:47 | 46.22183 | 14.46586 | 1222 ft | 29 kts | 126° |
| 2026-05-07 18:48 | 46.22060 | 14.46828 | 1215 ft | 27 kts | 126° |
| 2026-05-07 18:48 | 46.21945 | 14.47049 | 1212 ft | 28 kts | 126° |
| 2026-05-07 18:48 | 46.21848 | 14.47242 | 1209 ft | 23 kts | 127° |
| 2026-05-07 18:48 | 46.21767 | 14.47389 | 1207 ft | 12 kts | 144° |
| 2026-05-07 18:49 | 46.21717 | 14.47382 | 1205 ft | 7 kts | 213° |
| 2026-05-07 18:49 | 46.21673 | 14.47336 | 1205 ft | 8 kts | 217° |
| 2026-05-07 18:49 | 46.21622 | 14.47278 | 1204 ft | 9 kts | 227° |
| 2026-05-07 18:49 | 46.21625 | 14.47213 | 1206 ft | 5 kts | 297° |
| 2026-05-07 18:50 | 46.21627 | 14.47210 | 1206 ft | 0 kts | 300° |
| 2026-05-07 18:50 | 46.21628 | 14.47207 | 1207 ft | 5 kts | 302° |
| 2026-05-07 18:50 | 46.21777 | 14.46915 | 1216 ft | 67 kts | 307° |
| 2026-05-07 18:51 | 46.22172 | 14.46140 | 1238 ft | 124 kts | 306° |
| 2026-05-07 18:51 | 46.22786 | 14.44942 | 1287 ft | 169 kts | 306° |
| 2026-05-07 18:51 | 46.23523 | 14.43468 | 1740 ft | 190 kts | 305° |
| 2026-05-07 18:51 | 46.24168 | 14.41681 | 2360 ft | 216 kts | 285° |
| 2026-05-07 18:52 | 46.24327 | 14.39523 | 3367 ft | 217 kts | 273° |
| 2026-05-07 18:52 | 46.24435 | 14.37353 | 4449 ft | 217 kts | 275° |
| 2026-05-07 18:52 | 46.24560 | 14.35180 | 5484 ft | 218 kts | 274° |
| 2026-05-07 18:52 | 46.24680 | 14.33000 | 6484 ft | 218 kts | 274° |
| 2026-05-07 18:53 | 46.24799 | 14.30791 | 7354 ft | 222 kts | 274° |
| 2026-05-07 18:53 | 46.24918 | 14.28547 | 8206 ft | 226 kts | 274° |
| 2026-05-07 18:53 | 46.25038 | 14.26263 | 9029 ft | 230 kts | 274° |
| 2026-05-07 18:53 | 46.25158 | 14.23937 | 9820 ft | 234 kts | 274° |
| 2026-05-07 18:54 | 46.25274 | 14.21584 | 10623 ft | 236 kts | 273° |
| 2026-05-07 18:54 | 46.25392 | 14.19236 | 11344 ft | 241 kts | 273° |
| 2026-05-07 18:54 | 46.25508 | 14.16800 | 12150 ft | 245 kts | 273° |
| 2026-05-07 18:54 | 46.25622 | 14.14337 | 13039 ft | 246 kts | 273° |
| 2026-05-07 18:55 | 46.25734 | 14.11858 | 13870 ft | 248 kts | 274° |
| 2026-05-07 18:55 | 46.26094 | 14.09310 | 14220 ft | 272 kts | 293° |
| 2026-05-07 18:55 | 46.27144 | 14.06938 | 14749 ft | 290 kts | 310° |
| 2026-05-07 18:55 | 46.28591 | 14.04797 | 15327 ft | 305 kts | 314° |
| 2026-05-07 18:56 | 46.30140 | 14.02591 | 15901 ft | 320 kts | 313° |
| 2026-05-07 18:56 | 46.31754 | 14.00286 | 16484 ft | 332 kts | 314° |
| 2026-05-07 18:56 | 46.33424 | 13.97910 | 17197 ft | 339 kts | 314° |
| 2026-05-07 18:56 | 46.35115 | 13.95498 | 17983 ft | 343 kts | 314° |
| 2026-05-07 18:57 | 46.36826 | 13.93067 | 18767 ft | 347 kts | 314° |
| 2026-05-07 18:57 | 46.38558 | 13.90611 | 19498 ft | 351 kts | 314° |
| 2026-05-07 18:57 | 46.39716 | 13.88979 | 19985 ft | 353 kts | 314° |
| 2026-05-07 18:57 | 46.42090 | 13.85637 | 20886 ft | 358 kts | 314° |
| 2026-05-07 18:58 | 46.43283 | 13.83967 | 21315 ft | 361 kts | 313° |
| 2026-05-07 18:58 | 46.45100 | 13.81427 | 21963 ft | 364 kts | 314° |
| 2026-05-07 18:58 | 46.46942 | 13.78859 | 22568 ft | 369 kts | 313° |
| 2026-05-07 18:58 | 46.48803 | 13.76276 | 23184 ft | 372 kts | 313° |
| 2026-05-07 18:59 | 46.50689 | 13.73669 | 23714 ft | 376 kts | 314° |
| 2026-05-07 18:59 | 46.52844 | 13.71455 | 24217 ft | 386 kts | 332° |
| 2026-05-07 18:59 | 46.55434 | 13.70292 | 24748 ft | 393 kts | 344° |
| 2026-05-07 18:59 | 46.58108 | 13.69406 | 25265 ft | 395 kts | 343° |
| 2026-05-07 19:00 | 46.60796 | 13.68488 | 25779 ft | 398 kts | 343° |
| 2026-05-07 19:00 | 46.63506 | 13.67567 | 26178 ft | 404 kts | 344° |
| 2026-05-07 19:00 | 46.66299 | 13.66629 | 26178 ft | 420 kts | 344° |
| 2026-05-07 19:00 | 46.69199 | 13.65659 | 26199 ft | 434 kts | 344° |
| 2026-05-07 19:01 | 46.72193 | 13.64656 | 26230 ft | 448 kts | 344° |
| 2026-05-07 19:01 | 46.75285 | 13.63620 | 26054 ft | 466 kts | 345° |
| 2026-05-07 19:01 | 46.78493 | 13.62549 | 25941 ft | 481 kts | 345° |
| 2026-05-07 19:01 | 46.81825 | 13.61441 | 25147 ft | 492 kts | 345° |
| 2026-05-07 19:02 | 46.85117 | 13.60365 | 24425 ft | 477 kts | 345° |
| 2026-05-07 19:02 | 46.88287 | 13.59318 | 23212 ft | 459 kts | 345° |
| 2026-05-07 19:02 | 46.91310 | 13.58335 | 22191 ft | 438 kts | 346° |
| 2026-05-07 19:02 | 46.94204 | 13.57358 | 22102 ft | 415 kts | 345° |
| 2026-05-07 19:03 | 46.97005 | 13.56404 | 22066 ft | 405 kts | 345° |
| 2026-05-07 19:03 | 46.99693 | 13.55491 | 22061 ft | 389 kts | 345° |
| 2026-05-07 19:03 | 47.02292 | 13.54605 | 22062 ft | 385 kts | 345° |
| 2026-05-07 19:03 | 47.04927 | 13.53697 | 22532 ft | 393 kts | 345° |
| 2026-05-07 19:04 | 47.07615 | 13.52764 | 22956 ft | 401 kts | 345° |
| 2026-05-07 19:04 | 47.10366 | 13.51818 | 23323 ft | 410 kts | 345° |
| 2026-05-07 19:04 | 47.13175 | 13.50850 | 23692 ft | 419 kts | 345° |
| 2026-05-07 19:04 | 47.16036 | 13.49871 | 24118 ft | 425 kts | 345° |
| 2026-05-07 19:05 | 47.18929 | 13.48873 | 24586 ft | 430 kts | 345° |
| 2026-05-07 19:05 | 47.21859 | 13.47865 | 25036 ft | 434 kts | 345° |
| 2026-05-07 19:05 | 47.24814 | 13.46846 | 25512 ft | 438 kts | 345° |
| 2026-05-07 19:05 | 47.27790 | 13.45824 | 25980 ft | 440 kts | 345° |
| 2026-05-07 19:06 | 47.30792 | 13.44792 | 26117 ft | 443 kts | 345° |
| 2026-05-07 19:06 | 47.36901 | 13.42694 | 26121 ft | 450 kts | 346° |
| 2026-05-07 19:06 | 47.39938 | 13.41652 | 26120 ft | 447 kts | 345° |
| 2026-05-07 19:07 | 47.42959 | 13.40611 | 26103 ft | 445 kts | 345° |
| 2026-05-07 19:07 | 47.45969 | 13.39575 | 26069 ft | 444 kts | 346° |
| 2026-05-07 19:07 | 47.48940 | 13.38407 | 26044 ft | 442 kts | 338° |
| 2026-05-07 19:07 | 47.51589 | 13.36184 | 26071 ft | 438 kts | 320° |
| 2026-05-07 19:08 | 47.53937 | 13.33282 | 26076 ft | 438 kts | 318° |
| 2026-05-07 19:08 | 47.56235 | 13.30441 | 26053 ft | 437 kts | 319° |
| 2026-05-07 19:08 | 47.58570 | 13.27575 | 25845 ft | 433 kts | 319° |
| 2026-05-07 19:08 | 47.60851 | 13.24755 | 25524 ft | 420 kts | 319° |
| 2026-05-07 19:09 | 47.63074 | 13.22008 | 24985 ft | 413 kts | 319° |
| 2026-05-07 19:09 | 47.65266 | 13.19284 | 24423 ft | 407 kts | 319° |
| 2026-05-07 19:09 | 47.67425 | 13.16610 | 23851 ft | 401 kts | 319° |
| 2026-05-07 19:09 | 47.69552 | 13.13971 | 23321 ft | 395 kts | 319° |
| 2026-05-07 19:10 | 47.71650 | 13.11374 | 22786 ft | 389 kts | 319° |
| 2026-05-07 19:10 | 47.73714 | 13.08817 | 22270 ft | 384 kts | 319° |
| 2026-05-07 19:10 | 47.75748 | 13.06296 | 21751 ft | 378 kts | 319° |
| 2026-05-07 19:10 | 47.77757 | 13.03809 | 21247 ft | 373 kts | 319° |
| 2026-05-07 19:11 | 47.79740 | 13.01351 | 20746 ft | 368 kts | 319° |
| 2026-05-07 19:11 | 47.81693 | 12.98933 | 20255 ft | 363 kts | 319° |
| 2026-05-07 19:11 | 47.83617 | 12.96549 | 19777 ft | 358 kts | 319° |
| 2026-05-07 19:11 | 47.85521 | 12.94190 | 19296 ft | 355 kts | 319° |
| 2026-05-07 19:12 | 47.87411 | 12.91847 | 18824 ft | 352 kts | 319° |
| 2026-05-07 19:12 | 47.89290 | 12.89519 | 18356 ft | 351 kts | 319° |
| 2026-05-07 19:12 | 47.91162 | 12.87197 | 17884 ft | 349 kts | 319° |
| 2026-05-07 19:12 | 47.93027 | 12.84884 | 17422 ft | 348 kts | 319° |
| 2026-05-07 19:13 | 47.94871 | 12.82560 | 16956 ft | 345 kts | 315° |
| 2026-05-07 19:13 | 47.96351 | 12.79784 | 16504 ft | 341 kts | 301° |
| 2026-05-07 19:13 | 47.97551 | 12.76750 | 16050 ft | 339 kts | 299° |
| 2026-05-07 19:13 | 47.98749 | 12.73737 | 15617 ft | 336 kts | 300° |
| 2026-05-07 19:14 | 47.99926 | 12.70780 | 15168 ft | 334 kts | 300° |
| 2026-05-07 19:14 | 48.01112 | 12.67811 | 14729 ft | 332 kts | 300° |
| 2026-05-07 19:14 | 48.02288 | 12.64865 | 14289 ft | 328 kts | 300° |
| 2026-05-07 19:14 | 48.03449 | 12.61961 | 13849 ft | 323 kts | 300° |
| 2026-05-07 19:15 | 48.04594 | 12.59096 | 13417 ft | 318 kts | 300° |
| 2026-05-07 19:15 | 48.05723 | 12.56275 | 12993 ft | 314 kts | 300° |
| 2026-05-07 19:15 | 48.06838 | 12.53490 | 12551 ft | 311 kts | 300° |
| 2026-05-07 19:15 | 48.07943 | 12.50742 | 12175 ft | 306 kts | 300° |
| 2026-05-07 19:16 | 48.09030 | 12.48025 | 11771 ft | 302 kts | 300° |
| 2026-05-07 19:16 | 48.10093 | 12.45373 | 11359 ft | 292 kts | 300° |
| 2026-05-07 19:16 | 48.11121 | 12.42802 | 11005 ft | 286 kts | 300° |
| 2026-05-07 19:16 | 48.12139 | 12.40251 | 10630 ft | 285 kts | 300° |
| 2026-05-07 19:17 | 48.13155 | 12.37706 | 10317 ft | 282 kts | 300° |
| 2026-05-07 19:17 | 48.14088 | 12.35163 | 10171 ft | 276 kts | 289° |
| 2026-05-07 19:17 | 48.14286 | 12.32352 | 10164 ft | 274 kts | 264° |
| 2026-05-07 19:17 | 48.14053 | 12.29501 | 10163 ft | 278 kts | 263° |
| 2026-05-07 19:18 | 48.13842 | 12.26602 | 10088 ft | 281 kts | 264° |
| 2026-05-07 19:18 | 48.13629 | 12.23730 | 10072 ft | 280 kts | 263° |
| 2026-05-07 19:18 | 48.13416 | 12.20839 | 10075 ft | 281 kts | 263° |
| 2026-05-07 19:18 | 48.13200 | 12.17926 | 10069 ft | 281 kts | 263° |
| 2026-05-07 19:19 | 48.12984 | 12.15020 | 10080 ft | 281 kts | 263° |
| 2026-05-07 19:19 | 48.12768 | 12.12107 | 10079 ft | 281 kts | 263° |
| 2026-05-07 19:19 | 48.12550 | 12.09195 | 10080 ft | 281 kts | 263° |
| 2026-05-07 19:19 | 48.12592 | 12.06283 | 10086 ft | 281 kts | 284° |
| 2026-05-07 19:20 | 48.13495 | 12.03704 | 10108 ft | 285 kts | 311° |
| 2026-05-07 19:20 | 48.15052 | 12.02050 | 10004 ft | 291 kts | 336° |
| 2026-05-07 19:20 | 48.17136 | 12.01577 | 9758 ft | 296 kts | 5° |
| 2026-05-07 19:20 | 48.19075 | 12.02571 | 9546 ft | 297 kts | 32° |
| 2026-05-07 19:21 | 48.20529 | 12.04737 | 9343 ft | 296 kts | 53° |
| 2026-05-07 19:21 | 48.21709 | 12.07281 | 9057 ft | 298 kts | 54° |
| 2026-05-07 19:21 | 48.22905 | 12.09825 | 8677 ft | 298 kts | 54° |
| 2026-05-07 19:21 | 48.24101 | 12.12361 | 8297 ft | 296 kts | 54° |
| 2026-05-07 19:22 | 48.25275 | 12.14849 | 7913 ft | 288 kts | 54° |
| 2026-05-07 19:22 | 48.26408 | 12.17253 | 7536 ft | 283 kts | 54° |
| 2026-05-07 19:22 | 48.27395 | 12.19757 | 7143 ft | 276 kts | 70° |
| 2026-05-07 19:22 | 48.27711 | 12.22547 | 6766 ft | 269 kts | 86° |
| 2026-05-07 19:23 | 48.27859 | 12.25316 | 6392 ft | 263 kts | 84° |
| 2026-05-07 19:23 | 48.28043 | 12.28022 | 6012 ft | 258 kts | 84° |
| 2026-05-07 19:23 | 48.28220 | 12.30687 | 5633 ft | 254 kts | 84° |
| 2026-05-07 19:23 | 48.28397 | 12.33313 | 5254 ft | 251 kts | 83° |
| 2026-05-07 19:24 | 48.28936 | 12.35734 | 4958 ft | 240 kts | 52° |
| 2026-05-07 19:24 | 48.30181 | 12.37165 | 5010 ft | 224 kts | 16° |
| 2026-05-07 19:24 | 48.31704 | 12.37219 | 5012 ft | 222 kts | 340° |
| 2026-05-07 19:24 | 48.32934 | 12.35897 | 5034 ft | 221 kts | 303° |
| 2026-05-07 19:25 | 48.33606 | 12.33831 | 5087 ft | 222 kts | 293° |
| 2026-05-07 19:25 | 48.34246 | 12.31714 | 5123 ft | 223 kts | 294° |
| 2026-05-07 19:25 | 48.34899 | 12.29585 | 4970 ft | 229 kts | 294° |
| 2026-05-07 19:25 | 48.35588 | 12.27337 | 4306 ft | 241 kts | 294° |
| 2026-05-07 19:26 | 48.36273 | 12.25045 | 3937 ft | 236 kts | 292° |
| 2026-05-07 19:26 | 48.36881 | 12.22841 | 3954 ft | 224 kts | 292° |
| 2026-05-07 19:26 | 48.37442 | 12.20686 | 3925 ft | 220 kts | 282° |
| 2026-05-07 19:26 | 48.37382 | 12.18417 | 3737 ft | 215 kts | 258° |
| 2026-05-07 19:27 | 48.37096 | 12.16323 | 3725 ft | 194 kts | 264° |
| 2026-05-07 19:27 | 48.37002 | 12.14301 | 3713 ft | 195 kts | 267° |
| 2026-05-07 19:27 | 48.36865 | 12.12264 | 3713 ft | 197 kts | 263° |
| 2026-05-07 19:27 | 48.36690 | 12.10247 | 3709 ft | 197 kts | 264° |
| 2026-05-07 19:28 | 48.36549 | 12.08189 | 3715 ft | 198 kts | 265° |
| 2026-05-07 19:28 | 48.36402 | 12.06132 | 3710 ft | 198 kts | 264° |
| 2026-05-07 19:28 | 48.36245 | 12.04073 | 3709 ft | 198 kts | 264° |
| 2026-05-07 19:28 | 48.36093 | 12.02006 | 3716 ft | 198 kts | 264° |
| 2026-05-07 19:29 | 48.35942 | 11.99943 | 3708 ft | 198 kts | 264° |
| 2026-05-07 19:29 | 48.35788 | 11.97886 | 3662 ft | 196 kts | 264° |
| 2026-05-07 19:29 | 48.35639 | 11.95902 | 3468 ft | 186 kts | 264° |
| 2026-05-07 19:29 | 48.35498 | 11.94005 | 3260 ft | 177 kts | 264° |
| 2026-05-07 19:30 | 48.35363 | 11.92199 | 3016 ft | 169 kts | 264° |
| 2026-05-07 19:30 | 48.35237 | 11.90509 | 2812 ft | 155 kts | 264° |
| 2026-05-07 19:30 | 48.35121 | 11.88967 | 2637 ft | 144 kts | 263° |
| 2026-05-07 19:30 | 48.35008 | 11.87474 | 2419 ft | 142 kts | 263° |
| 2026-05-07 19:31 | 48.34898 | 11.86006 | 2234 ft | 141 kts | 264° |
| 2026-05-07 19:31 | 48.34791 | 11.84547 | 2050 ft | 140 kts | 264° |
| 2026-05-07 19:31 | 48.34682 | 11.83096 | 1862 ft | 138 kts | 264° |
| 2026-05-07 19:31 | 48.34574 | 11.81696 | 1677 ft | 132 kts | 263° |
| 2026-05-07 19:32 | 48.34460 | 11.80340 | 1519 ft | 129 kts | 265° |
| 2026-05-07 19:32 | 48.34375 | 11.79122 | 1484 ft | 102 kts | 264° |
| 2026-05-07 19:32 | 48.34312 | 11.78260 | 1484 ft | 55 kts | 264° |
| 2026-05-07 19:32 | 48.34315 | 11.77989 | 1484 ft | 18 kts | 287° |
| 2026-05-07 19:33 | 48.34365 | 11.77817 | 1477 ft | 18 kts | 295° |
| 2026-05-07 19:33 | 48.34410 | 11.77664 | 1474 ft | 11 kts | 292° |
| 2026-05-07 19:33 | 48.34443 | 11.77553 | 1474 ft | 12 kts | 294° |
| 2026-05-07 19:33 | 48.34499 | 11.77458 | 1484 ft | 13 kts | 332° |
| 2026-05-07 19:34 | 48.34586 | 11.77424 | 1476 ft | 13 kts | 359° |
| 2026-05-07 19:34 | 48.34637 | 11.77513 | 1477 ft | 13 kts | 86° |
| 2026-05-07 19:34 | 48.34642 | 11.77650 | 1484 ft | 13 kts | 81° |
| 2026-05-07 19:34 | 48.34655 | 11.77801 | 1478 ft | 16 kts | 83° |
| 2026-05-07 19:35 | 48.34669 | 11.77980 | 1478 ft | 18 kts | 83° |
| 2026-05-07 19:35 | 48.34684 | 11.78182 | 1479 ft | 21 kts | 83° |
| 2026-05-07 19:35 | 48.34702 | 11.78407 | 1481 ft | 23 kts | 83° |
| 2026-05-07 19:35 | 48.34721 | 11.78647 | 1484 ft | 23 kts | 83° |
| 2026-05-07 19:36 | 48.34739 | 11.78890 | 1484 ft | 23 kts | 84° |
| 2026-05-07 19:36 | 48.34758 | 11.79134 | 1478 ft | 23 kts | 83° |
| 2026-05-07 19:36 | 48.34777 | 11.79378 | 1484 ft | 24 kts | 84° |
| 2026-05-07 19:36 | 48.34794 | 11.79598 | 1473 ft | 17 kts | 83° |
| 2026-05-07 19:37 | 48.34861 | 11.79693 | 1481 ft | 14 kts | 349° |
| 2026-05-07 19:37 | 48.34937 | 11.79681 | 1472 ft | 11 kts | 353° |
| 2026-05-07 19:37 | 48.35021 | 11.79666 | 1477 ft | 12 kts | 353° |
| 2026-05-07 19:37 | 48.35095 | 11.79706 | 1477 ft | 12 kts | 63° |
| 2026-05-07 19:38 | 48.35111 | 11.79834 | 1484 ft | 13 kts | 83° |
| 2026-05-07 19:38 | 48.35105 | 11.79960 | 1480 ft | 10 kts | 136° |
| 2026-05-07 19:38 | 48.35038 | 11.79982 | 1484 ft | 10 kts | 172° |
| 2026-05-07 19:38 | 48.35006 | 11.80033 | 1478 ft | 6 kts | 61° |
| 2026-05-07 19:39 | 48.35030 | 11.80044 | 1484 ft | 2 kts | 1° |
| 2026-05-07 19:39 | 48.35036 | 11.80043 | 1484 ft | 0 kts | 355° |